createdAt,value
2018-01-05T00:00:29.299Z,98217.44
2018-01-05T00:02:56.706Z,98209.22
2018-01-05T00:05:24.102Z,98210.83
2018-01-05T00:07:51.480Z,98218.73
2018-01-05T00:10:18.910Z,98226.05
2018-01-05T00:12:46.314Z,98219.42
2018-01-05T00:15:13.683Z,98220.45
2018-01-05T00:17:41.067Z,98218.77
2018-01-05T00:20:08.464Z,98232.91
2018-01-05T00:22:35.842Z,98232.50
2018-01-05T00:25:03.248Z,98235.73
2018-01-05T00:27:30.617Z,98251.30
2018-01-05T00:29:58.015Z,98270.81
2018-01-05T00:32:25.411Z,98267.35
2018-01-05T00:34:52.803Z,98273.17
2018-01-05T00:37:20.192Z,98271.97
2018-01-05T00:39:47.591Z,98292.94
2018-01-05T00:42:14.975Z,98296.33
2018-01-05T00:44:42.399Z,98292.48
2018-01-05T00:47:09.788Z,98302.14
2018-01-05T00:49:37.271Z,98309.27
2018-01-05T00:52:04.659Z,98320.68
2018-01-05T00:54:32.044Z,98313.10
2018-01-05T00:56:59.426Z,98335.88
2018-01-05T00:59:26.813Z,98318.20
2018-01-05T01:01:54.203Z,98326.81
2018-01-05T01:04:21.591Z,98318.60
2018-01-05T01:06:49.017Z,98323.70
2018-01-05T01:09:16.417Z,98333.61
2018-01-05T01:11:43.814Z,98334.46
2018-01-05T01:14:11.205Z,98332.19
2018-01-05T01:16:38.594Z,98348.24
2018-01-05T01:19:05.982Z,98343.55
2018-01-05T01:21:33.369Z,98356.23
2018-01-05T01:24:00.775Z,98349.33
2018-01-05T01:26:28.171Z,98352.05
2018-01-05T01:28:55.558Z,98365.34
2018-01-05T01:31:22.947Z,98357.58
2018-01-05T01:33:50.338Z,98356.61
2018-01-05T01:36:17.743Z,98357.58
2018-01-05T01:38:45.132Z,98341.89
2018-01-05T01:41:12.558Z,98354.61
2018-01-05T01:43:39.994Z,98342.45
2018-01-05T01:46:07.382Z,98347.78
2018-01-05T01:48:34.777Z,98351.20
2018-01-05T01:51:02.559Z,98347.70
2018-01-05T01:53:29.946Z,98343.84
2018-01-05T01:55:57.339Z,98352.81
2018-01-05T01:58:24.722Z,98371.01
2018-01-05T02:00:52.115Z,98361.59
2018-01-05T02:03:19.507Z,98387.33
2018-01-05T02:05:46.888Z,98363.48
2018-01-05T02:08:14.301Z,98357.60
2018-01-05T02:10:41.669Z,98371.25
2018-01-05T02:13:09.057Z,98371.58
2018-01-05T02:15:36.439Z,98380.34
2018-01-05T02:18:03.829Z,98373.09
2018-01-05T02:20:31.214Z,98373.86
2018-01-05T02:22:58.624Z,98370.47
2018-01-05T02:25:26.021Z,98382.82
2018-01-05T02:27:53.417Z,98383.27
2018-01-05T02:30:20.802Z,98387.13
2018-01-05T02:32:48.202Z,98381.65
2018-01-05T02:35:15.579Z,98388.17
2018-01-05T02:37:42.989Z,98389.25
2018-01-05T02:40:10.466Z,98382.36
2018-01-05T02:42:37.858Z,98387.76
2018-01-05T02:45:05.251Z,98392.00
2018-01-05T02:47:32.642Z,98394.58
2018-01-05T02:50:00.046Z,98398.27
2018-01-05T02:52:27.427Z,98387.39
2018-01-05T02:54:54.811Z,98379.08
2018-01-05T02:57:22.199Z,98389.95
2018-01-05T02:59:49.598Z,98377.66
2018-01-05T03:02:16.979Z,98382.42
2018-01-05T03:04:44.378Z,98386.98
2018-01-05T03:07:11.758Z,98384.33
2018-01-05T03:09:39.150Z,98372.80
2018-01-05T03:12:06.533Z,98370.60
2018-01-05T03:14:33.957Z,98374.12
2018-01-05T03:17:01.330Z,98379.58
2018-01-05T03:19:28.733Z,98370.34
2018-01-05T03:21:56.118Z,98378.81
2018-01-05T03:24:23.563Z,98376.13
2018-01-05T03:26:50.898Z,98368.52
2018-01-05T03:29:18.287Z,98377.70
2018-01-05T03:31:45.677Z,98374.30
2018-01-05T03:34:13.077Z,98374.32
2018-01-05T03:36:40.458Z,98388.38
2018-01-05T03:39:07.871Z,98388.79
2018-01-05T03:41:35.229Z,98380.39
2018-01-05T03:44:02.622Z,98375.34
2018-01-05T03:46:30.005Z,98379.95
2018-01-05T03:48:57.412Z,98388.59
2018-01-05T03:51:24.788Z,98371.66
2018-01-05T03:53:52.159Z,98387.55
2018-01-05T03:56:19.555Z,98370.26
2018-01-05T03:58:47.017Z,98385.58
2018-01-05T04:01:14.415Z,98391.88
2018-01-05T04:03:41.800Z,98386.00
2018-01-05T04:06:09.199Z,98392.16
2018-01-05T04:08:36.655Z,98395.21
2018-01-05T04:11:04.036Z,98395.53
2018-01-05T04:13:31.420Z,98393.52
2018-01-05T04:15:58.901Z,98389.75
2018-01-05T04:18:26.335Z,98386.72
2018-01-05T04:20:53.687Z,98386.23
2018-01-05T04:23:21.074Z,98386.63
2018-01-05T04:25:48.469Z,98392.78
2018-01-05T04:28:15.867Z,98386.31
2018-01-05T04:30:43.250Z,98377.14
2018-01-05T04:33:11.248Z,98377.33
2018-01-05T04:35:38.655Z,98386.11
2018-01-05T04:38:06.055Z,98384.92
2018-01-05T04:40:33.438Z,98388.96
2018-01-05T04:43:00.831Z,98384.02
2018-01-05T04:45:28.246Z,98386.42
2018-01-05T04:47:55.739Z,98390.17
2018-01-05T04:50:23.118Z,98394.92
2018-01-05T04:52:50.511Z,98414.20
2018-01-05T04:55:17.892Z,98406.73
2018-01-05T04:57:45.363Z,98414.96
2018-01-05T05:00:12.855Z,98411.77
2018-01-05T05:02:40.247Z,98412.89
2018-01-05T05:05:07.631Z,98420.36
2018-01-05T05:07:35.019Z,98416.31
2018-01-05T05:10:02.401Z,98416.49
2018-01-05T05:12:29.798Z,98426.92
2018-01-05T05:14:57.178Z,98439.42
2018-01-05T05:17:24.574Z,98433.94
2018-01-05T05:19:51.954Z,98438.13
2018-01-05T05:22:19.355Z,98425.96
2018-01-05T05:24:46.742Z,98436.14
2018-01-05T05:27:14.122Z,98423.04
2018-01-05T05:29:41.615Z,98415.89
2018-01-05T05:32:09.008Z,98441.63
2018-01-05T05:34:36.424Z,98442.63
2018-01-05T05:37:03.810Z,98445.04
2018-01-05T05:39:31.202Z,98442.51
2018-01-05T05:41:58.687Z,98448.27
2018-01-05T05:44:27.073Z,98453.37
2018-01-05T05:46:54.466Z,98452.42
2018-01-05T05:49:21.854Z,98449.27
2018-01-05T05:51:49.373Z,98448.78
2018-01-05T05:54:16.790Z,98453.19
2018-01-05T05:56:44.175Z,98463.92
2018-01-05T05:59:11.583Z,98467.83
2018-01-05T06:01:38.965Z,98475.55
2018-01-05T06:04:06.357Z,98477.41
2018-01-05T06:06:33.734Z,98490.00
2018-01-05T06:09:01.140Z,98493.93
2018-01-05T06:11:28.518Z,98496.37
2018-01-05T06:13:55.903Z,98490.67
2018-01-05T06:16:23.286Z,98493.03
2018-01-05T06:18:50.675Z,98496.16
2018-01-05T06:21:18.062Z,98498.51
2018-01-05T06:23:45.449Z,98494.49
2018-01-05T06:26:12.834Z,98499.00
2018-01-05T06:28:40.223Z,98492.53
2018-01-05T06:31:07.720Z,98500.33
2018-01-05T06:33:35.098Z,98495.60
2018-01-05T06:36:02.489Z,98496.16
2018-01-05T06:38:29.871Z,98500.06
2018-01-05T06:40:57.263Z,98500.80
2018-01-05T06:43:24.663Z,98489.63
2018-01-05T06:45:52.117Z,98490.94
2018-01-05T06:48:19.619Z,98492.48
2018-01-05T06:50:47.002Z,98487.48
2018-01-05T06:53:14.383Z,98497.24
2018-01-05T06:55:41.771Z,98488.31
2018-01-05T06:58:09.149Z,98493.05
2018-01-05T07:00:36.574Z,98493.96
2018-01-05T07:03:04.188Z,98493.50
2018-01-05T07:05:31.587Z,98499.22
2018-01-05T07:07:59.056Z,98497.48
2018-01-05T07:10:27.235Z,98497.34
2018-01-05T07:12:54.623Z,98506.86
2018-01-05T07:15:22.007Z,98505.38
2018-01-05T07:17:49.494Z,98510.27
2018-01-05T07:20:16.866Z,98513.79
2018-01-05T07:22:44.269Z,98512.43
2018-01-05T07:25:11.755Z,98510.48
2018-01-05T07:27:39.142Z,98516.86
2018-01-05T07:30:06.528Z,98527.33
2018-01-05T07:32:33.915Z,98527.64
2018-01-05T07:35:01.294Z,98540.90
2018-01-05T07:37:28.755Z,98537.41
2018-01-05T07:39:56.186Z,98541.88
2018-01-05T07:42:23.584Z,98546.13
2018-01-05T07:44:50.958Z,98556.22
2018-01-05T07:47:18.351Z,98564.41
2018-01-05T07:49:45.740Z,98560.09
2018-01-05T07:52:13.134Z,98558.48
2018-01-05T07:54:40.574Z,98553.72
2018-01-05T07:57:08.003Z,98560.78
2018-01-05T07:59:35.387Z,98552.85
2018-01-05T08:02:02.767Z,98561.78
2018-01-05T08:04:30.163Z,98564.78
2018-01-05T08:06:57.542Z,98573.61
2018-01-05T08:09:24.940Z,98574.37
2018-01-05T08:11:53.535Z,98578.72
2018-01-05T08:14:20.915Z,98575.79
2018-01-05T08:16:48.328Z,98583.03
2018-01-05T08:19:15.713Z,98592.30
2018-01-05T08:21:43.095Z,98592.53
2018-01-05T08:24:10.486Z,98594.56
2018-01-05T08:26:37.867Z,98593.52
2018-01-05T08:29:05.251Z,98601.55
2018-01-05T08:31:32.642Z,98614.91
2018-01-05T08:34:00.043Z,98613.07
2018-01-05T08:36:27.419Z,98624.89
2018-01-05T08:38:54.908Z,98616.34
2018-01-05T08:41:22.289Z,98626.02
2018-01-05T08:43:49.683Z,98627.16
2018-01-05T08:46:17.072Z,98623.02
2018-01-05T08:48:44.457Z,98635.40
2018-01-05T08:51:11.839Z,98634.40
2018-01-05T08:53:39.234Z,98636.53
2018-01-05T08:56:06.619Z,98636.72
2018-01-05T08:58:34.047Z,98641.28
2018-01-05T09:01:01.467Z,98645.89
2018-01-05T09:03:28.851Z,98644.41
2018-01-05T09:05:56.248Z,98652.25
2018-01-05T09:08:23.631Z,98655.33
2018-01-05T09:10:51.027Z,98655.59
2018-01-05T09:13:18.704Z,98655.42
2018-01-05T09:15:46.119Z,98669.81
2018-01-05T09:18:13.512Z,98671.95
2018-01-05T09:20:40.898Z,98676.57
2018-01-05T09:23:08.318Z,98681.36
2018-01-05T09:25:35.706Z,98686.50
2018-01-05T09:28:03.079Z,98688.81
2018-01-05T09:30:30.572Z,98689.19
2018-01-05T09:32:57.992Z,98696.89
2018-01-05T09:35:25.396Z,98691.31
2018-01-05T09:37:52.843Z,98693.17
2018-01-05T09:40:20.231Z,98707.22
2018-01-05T09:42:47.634Z,98718.48
2018-01-05T09:45:15.098Z,98718.16
2018-01-05T09:47:42.558Z,98719.25
2018-01-05T09:50:10.019Z,98725.26
2018-01-05T09:52:37.406Z,98728.22
2018-01-05T09:55:04.779Z,98738.55
2018-01-05T09:57:32.166Z,98746.92
2018-01-05T09:59:59.576Z,98741.76
2018-01-05T10:02:26.965Z,98750.41
2018-01-05T10:04:54.455Z,98747.20
2018-01-05T10:07:21.847Z,98751.14
2018-01-05T10:09:49.223Z,98751.86
2018-01-05T10:12:16.614Z,98766.80
2018-01-05T10:14:44.001Z,98765.51
2018-01-05T10:17:11.391Z,98772.03
2018-01-05T10:19:38.767Z,98777.20
2018-01-05T10:22:06.173Z,98772.55
2018-01-05T10:24:33.552Z,98775.70
2018-01-05T10:27:01.048Z,98773.00
2018-01-05T10:29:28.435Z,98773.48
2018-01-05T10:31:55.827Z,98782.56
2018-01-05T10:34:23.310Z,98782.48
2018-01-05T10:36:50.793Z,98796.34
2018-01-05T10:39:18.193Z,98797.36
2018-01-05T10:41:45.684Z,98785.73
2018-01-05T10:44:13.074Z,98800.61
2018-01-05T10:46:40.471Z,98808.80
2018-01-05T10:49:07.857Z,98809.88
2018-01-05T10:51:35.248Z,98812.05
2018-01-05T10:54:02.638Z,98817.84
2018-01-05T10:56:30.053Z,98809.03
2018-01-05T10:58:57.466Z,98815.19
2018-01-05T11:01:24.858Z,98812.73
2018-01-05T11:03:52.269Z,98807.73
2018-01-05T11:06:19.664Z,98817.66
2018-01-05T11:08:47.091Z,98815.20
2018-01-05T11:11:14.470Z,98820.23
2018-01-05T11:13:41.851Z,98819.34
2018-01-05T11:16:09.238Z,98814.63
2018-01-05T11:18:36.626Z,98816.58
2018-01-05T11:21:04.007Z,98810.87
2018-01-05T11:23:31.404Z,98813.95
2018-01-05T11:25:58.788Z,98827.40
2018-01-05T11:28:26.172Z,98825.56
2018-01-05T11:30:53.561Z,98830.62
2018-01-05T11:33:20.959Z,98838.63
2018-01-05T11:35:48.347Z,98836.57
2018-01-05T11:38:15.745Z,98841.38
2018-01-05T11:40:43.126Z,98852.16
2018-01-05T11:43:10.522Z,98861.14
2018-01-05T11:45:37.919Z,98852.81
2018-01-05T11:48:05.333Z,98843.02
2018-01-05T11:50:32.734Z,98857.63
2018-01-05T11:53:00.094Z,98858.60
2018-01-05T11:55:27.505Z,98866.48
2018-01-05T11:57:54.868Z,98867.25
2018-01-05T12:00:22.257Z,98871.97
2018-01-05T12:02:49.634Z,98875.50
2018-01-05T12:05:17.035Z,98873.81
2018-01-05T12:07:44.541Z,98875.75
2018-01-05T12:10:12.397Z,98877.42
2018-01-05T12:12:39.772Z,98881.46
2018-01-05T12:15:07.167Z,98886.73
2018-01-05T12:17:34.558Z,98900.14
2018-01-05T12:20:02.000Z,98902.42
2018-01-05T12:22:29.459Z,98896.50
2018-01-05T12:24:56.851Z,98888.84
2018-01-05T12:27:24.287Z,98887.47
2018-01-05T12:29:51.691Z,98898.48
2018-01-05T12:32:19.150Z,98895.55
2018-01-05T12:34:46.530Z,98910.11
2018-01-05T12:37:13.923Z,98899.20
2018-01-05T12:39:41.326Z,98897.36
2018-01-05T12:42:08.713Z,98906.39
2018-01-05T12:44:36.091Z,98908.36
2018-01-05T12:47:03.490Z,98912.47
2018-01-05T12:49:30.870Z,98906.55
2018-01-05T12:51:58.258Z,98904.83
2018-01-05T12:54:25.646Z,98912.02
2018-01-05T12:56:53.055Z,98908.14
2018-01-05T12:59:20.444Z,98906.19
2018-01-05T13:01:47.829Z,98895.84
2018-01-05T13:04:15.206Z,98893.70
2018-01-05T13:06:42.599Z,98900.51
2018-01-05T13:09:09.989Z,98919.97
2018-01-05T13:11:37.374Z,98914.35
2018-01-05T13:14:04.778Z,98925.16
2018-01-05T13:16:32.274Z,98935.91
2018-01-05T13:18:59.714Z,98927.50
2018-01-05T13:21:27.107Z,98925.06
2018-01-05T13:23:54.503Z,98927.20
2018-01-05T13:26:21.896Z,98941.22
2018-01-05T13:28:49.283Z,98950.88
2018-01-05T13:31:16.712Z,98967.06
2018-01-05T13:33:44.090Z,98965.59
2018-01-05T13:36:11.529Z,98972.48
2018-01-05T13:38:38.902Z,98963.00
2018-01-05T13:41:06.286Z,98974.88
2018-01-05T13:43:33.678Z,98970.59
2018-01-05T13:46:01.088Z,98978.30
2018-01-05T13:48:28.476Z,98982.78
2018-01-05T13:50:55.870Z,98993.33
2018-01-05T13:53:23.267Z,98989.75
2018-01-05T13:55:50.672Z,98975.80
2018-01-05T13:58:18.063Z,98980.02
2018-01-05T14:00:45.455Z,98987.39
2018-01-05T14:03:12.834Z,98989.89
2018-01-05T14:05:40.219Z,98994.87
2018-01-05T14:08:07.612Z,98995.97
2018-01-05T14:10:34.989Z,98985.94
2018-01-05T14:13:02.392Z,98988.85
2018-01-05T14:15:30.219Z,98994.18
2018-01-05T14:17:58.574Z,98991.70
2018-01-05T14:20:26.006Z,98992.02
2018-01-05T14:22:53.336Z,99000.75
2018-01-05T14:25:20.715Z,99003.13
2018-01-05T14:27:48.106Z,99001.40
2018-01-05T14:30:15.493Z,99001.87
2018-01-05T14:32:43.118Z,98994.72
2018-01-05T14:35:10.566Z,99001.61
2018-01-05T14:37:38.975Z,99008.41
2018-01-05T14:40:06.351Z,99009.19
2018-01-05T14:42:33.771Z,99009.00
2018-01-05T14:45:01.159Z,99007.77
2018-01-05T14:47:28.538Z,99010.97
2018-01-05T14:49:55.926Z,99007.80
2018-01-05T14:52:23.314Z,99010.93
2018-01-05T14:54:50.712Z,99013.84
2018-01-05T14:57:18.204Z,99007.47
2018-01-05T14:59:45.605Z,99016.95
2018-01-05T15:02:13.038Z,99013.00
2018-01-05T15:04:40.438Z,99019.75
2018-01-05T15:07:07.824Z,99016.82
2018-01-05T15:09:35.225Z,99028.84
2018-01-05T15:12:02.597Z,99034.34
2018-01-05T15:14:30.113Z,99037.66
2018-01-05T15:16:57.503Z,99039.86
2018-01-05T15:19:24.896Z,99037.23
2018-01-05T15:21:52.352Z,99036.27
2018-01-05T15:24:19.836Z,99037.75
2018-01-05T15:26:47.227Z,99048.48
2018-01-05T15:29:14.622Z,99051.16
2018-01-05T15:31:41.998Z,99053.03
2018-01-05T15:34:09.393Z,99052.37
2018-01-05T15:36:36.786Z,99049.30
2018-01-05T15:39:04.180Z,99052.99
2018-01-05T15:41:31.581Z,99043.92
2018-01-05T15:43:59.061Z,99045.36
2018-01-05T15:46:26.468Z,99050.48
2018-01-05T15:48:53.838Z,99051.62
2018-01-05T15:51:21.319Z,99053.33
2018-01-05T15:53:48.711Z,99054.39
2018-01-05T15:56:16.217Z,99058.55
2018-01-05T15:58:43.598Z,99059.14
2018-01-05T16:01:11.034Z,99066.93
2018-01-05T16:03:38.414Z,99066.93
2018-01-05T16:06:05.825Z,99063.94
2018-01-05T16:08:33.207Z,99059.83
2018-01-05T16:11:00.624Z,99065.02
2018-01-05T16:13:28.122Z,99069.70
2018-01-05T16:15:55.523Z,99068.44
2018-01-05T16:18:22.907Z,99070.41
2018-01-05T16:20:50.310Z,99078.87
2018-01-05T16:23:17.699Z,99083.34
2018-01-05T16:25:45.078Z,99083.97
2018-01-05T16:28:12.491Z,99078.57
2018-01-05T16:30:39.903Z,99088.92
2018-01-05T16:33:07.370Z,99096.08
2018-01-05T16:35:34.750Z,99099.88
2018-01-05T16:38:02.150Z,99109.98
2018-01-05T16:40:29.538Z,99115.25
2018-01-05T16:42:56.934Z,99112.71
2018-01-05T16:45:24.327Z,99119.50
2018-01-05T16:47:51.773Z,99123.66
2018-01-05T16:50:19.150Z,99124.11
2018-01-05T16:52:46.613Z,99117.64
2018-01-05T16:55:13.996Z,99111.19
2018-01-05T16:57:41.402Z,99117.95
2018-01-05T17:00:08.774Z,99119.48
2018-01-05T17:02:36.159Z,99111.30
2018-01-05T17:05:03.538Z,99111.38
2018-01-05T17:07:30.938Z,99112.74
2018-01-05T17:09:58.334Z,99118.34
2018-01-05T17:12:25.719Z,99118.82
2018-01-05T17:14:53.110Z,99124.70
2018-01-05T17:17:20.498Z,99122.11
2018-01-05T17:19:47.899Z,99123.61
2018-01-05T17:22:15.271Z,99122.95
2018-01-05T17:24:42.682Z,99120.56
2018-01-05T17:27:10.122Z,99116.89
2018-01-05T17:29:37.528Z,99117.03
2018-01-05T17:32:04.992Z,99115.94
2018-01-05T17:34:32.447Z,99120.23
2018-01-05T17:36:59.833Z,99133.19
2018-01-05T17:39:27.253Z,99127.90
2018-01-05T17:41:54.719Z,99130.42
2018-01-05T17:44:22.110Z,99135.80
2018-01-05T17:46:49.496Z,99135.45
2018-01-05T17:49:16.886Z,99131.02
2018-01-05T17:51:44.282Z,99132.80
2018-01-05T17:54:11.706Z,99131.13
2018-01-05T17:56:39.085Z,99132.40
2018-01-05T17:59:06.476Z,99130.17
2018-01-05T18:01:33.859Z,99133.47
2018-01-05T18:04:01.256Z,99126.28
2018-01-05T18:06:28.642Z,99123.05
2018-01-05T18:08:56.047Z,99114.98
2018-01-05T18:11:23.535Z,99117.84
2018-01-05T18:13:50.924Z,99117.17
2018-01-05T18:16:18.323Z,99114.05
2018-01-05T18:18:45.711Z,99119.83
2018-01-05T18:21:13.134Z,99122.08
2018-01-05T18:23:40.531Z,99115.02
2018-01-05T18:26:07.922Z,99112.17
2018-01-05T18:28:35.314Z,99106.07
2018-01-05T18:31:02.853Z,99099.30
2018-01-05T18:33:30.287Z,99102.95
2018-01-05T18:35:57.698Z,99091.93
2018-01-05T18:38:25.098Z,99085.72
2018-01-05T18:40:52.501Z,99077.03
2018-01-05T18:43:19.906Z,99067.12
2018-01-05T18:45:47.299Z,99080.67
2018-01-05T18:48:14.686Z,99081.75
2018-01-05T18:50:42.180Z,99093.06
2018-01-05T18:53:09.590Z,99098.94
2018-01-05T18:55:36.999Z,99093.66
2018-01-05T18:58:04.402Z,99094.63
2018-01-05T19:00:31.794Z,99101.86
2018-01-05T19:02:59.252Z,99100.16
2018-01-05T19:05:26.639Z,99100.78
2018-01-05T19:07:54.030Z,99110.26
2018-01-05T19:10:21.435Z,99107.71
2018-01-05T19:12:48.881Z,99103.19
2018-01-05T19:15:16.290Z,99104.92
2018-01-05T19:17:43.811Z,99097.53
2018-01-05T19:20:11.222Z,99097.59
2018-01-05T19:22:38.614Z,99090.61
2018-01-05T19:25:06.019Z,99084.64
2018-01-05T19:27:33.486Z,99085.43
2018-01-05T19:30:00.893Z,99081.58
2018-01-05T19:32:28.292Z,99088.30
2018-01-05T19:34:55.846Z,99096.28
2018-01-05T19:37:23.248Z,99102.92
2018-01-05T19:39:50.635Z,99101.86
2018-01-05T19:42:18.067Z,99099.78
2018-01-05T19:44:45.467Z,99098.40
2018-01-05T19:47:12.951Z,99098.78
2018-01-05T19:49:40.342Z,99096.50
2018-01-05T19:52:07.727Z,99090.83
2018-01-05T19:54:35.223Z,99092.06
2018-01-05T19:57:02.639Z,99093.10
2018-01-05T19:59:30.130Z,99091.34
2018-01-05T20:01:57.527Z,99089.44
2018-01-05T20:04:24.923Z,99097.98
2018-01-05T20:06:52.330Z,99089.81
2018-01-05T20:09:19.738Z,99098.39
2018-01-05T20:11:47.159Z,99093.97
2018-01-05T20:14:14.550Z,99087.73
2018-01-05T20:16:41.946Z,99091.59
2018-01-05T20:19:09.363Z,99093.72
2018-01-05T20:21:36.780Z,99100.88
2018-01-05T20:24:04.175Z,99093.06
2018-01-05T20:26:31.578Z,99097.12
2018-01-05T20:28:58.983Z,99102.59
2018-01-05T20:31:26.395Z,99099.66
2018-01-05T20:33:53.950Z,99101.11
2018-01-05T20:36:21.334Z,99101.14
2018-01-05T20:38:48.719Z,99097.18
2018-01-05T20:41:16.143Z,99099.16
2018-01-05T20:43:43.547Z,99093.48
2018-01-05T20:46:10.959Z,99098.76
2018-01-05T20:48:38.351Z,99104.89
2018-01-05T20:51:05.877Z,99102.41
2018-01-05T20:53:33.235Z,99105.59
2018-01-05T20:56:00.657Z,99109.06
2018-01-05T20:58:28.038Z,99115.11
2018-01-05T21:00:55.453Z,99127.44
2018-01-05T21:03:22.941Z,99132.00
2018-01-05T21:05:50.327Z,99135.94
2018-01-05T21:08:17.726Z,99134.72
2018-01-05T21:10:45.203Z,99131.93
2018-01-05T21:13:12.593Z,99138.45
2018-01-05T21:15:40.003Z,99136.95
2018-01-05T21:18:07.398Z,99134.19
2018-01-05T21:20:34.829Z,99126.30
2018-01-05T21:23:02.195Z,99140.41
2018-01-05T21:25:29.611Z,99142.35
2018-01-05T21:27:57.086Z,99172.88
2018-01-05T21:30:24.541Z,99187.13
2018-01-05T21:32:52.034Z,99192.63
2018-01-05T21:35:19.374Z,99173.01
2018-01-05T21:37:46.778Z,99183.60
2018-01-05T21:40:14.166Z,99187.13
2018-01-05T21:42:41.564Z,99199.13
2018-01-05T21:45:08.967Z,99195.12
2018-01-05T21:47:36.371Z,99196.44
2018-01-05T21:50:03.775Z,99189.12
2018-01-05T21:52:31.173Z,99189.62
2018-01-05T21:54:58.559Z,99192.14
2018-01-05T21:57:25.962Z,99204.03
2018-01-05T21:59:53.338Z,99197.34
2018-01-05T22:02:20.742Z,99204.62
2018-01-05T22:04:48.118Z,99210.79
2018-01-05T22:07:15.506Z,99213.06
2018-01-05T22:09:42.906Z,99216.25
2018-01-05T22:12:10.290Z,99215.93
2018-01-05T22:14:37.672Z,99212.64
2018-01-05T22:17:05.051Z,99218.39
2018-01-05T22:19:32.442Z,99213.95
2018-01-05T22:21:59.890Z,99219.04
2018-01-05T22:24:27.351Z,99231.93
2018-01-05T22:26:54.745Z,99232.64
2018-01-05T22:29:22.165Z,99232.36
2018-01-05T22:31:49.550Z,99238.70
2018-01-05T22:34:16.934Z,99248.63
2018-01-05T22:36:44.436Z,99260.19
2018-01-05T22:39:11.822Z,99259.42
2018-01-05T22:41:39.203Z,99252.53
2018-01-05T22:44:06.601Z,99258.02
2018-01-05T22:46:33.994Z,99268.98
2018-01-05T22:49:01.394Z,99269.48
2018-01-05T22:51:28.774Z,99276.41
2018-01-05T22:53:56.314Z,99280.36
2018-01-05T22:56:23.731Z,99281.52
2018-01-05T22:58:51.139Z,99291.16
2018-01-05T23:01:18.527Z,99301.58
2018-01-05T23:03:45.941Z,99307.45
2018-01-05T23:06:13.311Z,99313.33
2018-01-05T23:08:40.757Z,99317.04
2018-01-05T23:11:08.198Z,99320.53
2018-01-05T23:13:35.658Z,99329.17
2018-01-05T23:16:03.053Z,99331.17
2018-01-05T23:18:30.432Z,99330.45
2018-01-05T23:20:57.831Z,99334.69
2018-01-05T23:23:25.224Z,99340.30
2018-01-05T23:25:52.620Z,99347.88
2018-01-05T23:28:19.998Z,99347.30
2018-01-05T23:30:47.396Z,99343.80
2018-01-05T23:33:14.798Z,99342.59
2018-01-05T23:35:42.216Z,99340.63
2018-01-05T23:38:09.591Z,99338.17
2018-01-05T23:40:37.007Z,99341.17
2018-01-05T23:43:04.384Z,99345.46
2018-01-05T23:45:31.774Z,99353.86
2018-01-05T23:47:59.154Z,99359.83
2018-01-05T23:50:26.564Z,99359.39
2018-01-05T23:52:53.955Z,99355.77
2018-01-05T23:55:21.373Z,99363.48
2018-01-05T23:57:48.744Z,99365.22
